createdAt,value
2022-11-29T00:00:54.634Z,23.8
2022-11-29T00:01:56.323Z,23.8
2022-11-29T00:02:58.665Z,23.9
2022-11-29T00:04:00.994Z,23.9
2022-11-29T00:05:02.586Z,23.9
2022-11-29T00:06:04.197Z,23.9
2022-11-29T00:07:05.811Z,23.9
2022-11-29T00:08:07.665Z,23.9
2022-11-29T00:09:09.263Z,23.9
2022-11-29T00:10:10.866Z,23.8
2022-11-29T00:11:12.534Z,23.9
2022-11-29T00:12:14.219Z,23.8
2022-11-29T00:13:15.859Z,23.8
2022-11-29T00:14:17.486Z,23.8
2022-11-29T00:15:19.374Z,23.9
2022-11-29T00:16:21.186Z,23.9
2022-11-29T00:17:23.305Z,23.9
2022-11-29T00:18:25.035Z,23.9
2022-11-29T00:19:27.000Z,23.9
2022-11-29T00:20:28.633Z,23.9
2022-11-29T00:21:30.231Z,23.9
2022-11-29T00:22:31.873Z,23.9
2022-11-29T00:23:33.460Z,23.9
2022-11-29T00:24:35.101Z,23.9
2022-11-29T00:25:36.994Z,23.9
2022-11-29T00:26:38.811Z,23.9
2022-11-29T00:27:40.542Z,23.9
2022-11-29T00:28:42.131Z,23.9
2022-11-29T00:29:43.741Z,23.9
2022-11-29T00:30:45.559Z,23.9
2022-11-29T00:31:47.524Z,23.9
2022-11-29T00:32:49.330Z,23.9
2022-11-29T00:33:50.933Z,23.9
2022-11-29T00:34:52.550Z,23.9
2022-11-29T00:35:54.161Z,23.9
2022-11-29T00:36:55.822Z,23.9
2022-11-29T00:37:57.436Z,23.9
2022-11-29T00:38:59.208Z,23.9
2022-11-29T00:40:00.841Z,23.9
2022-11-29T00:41:02.471Z,23.9
2022-11-29T00:42:04.124Z,23.9
2022-11-29T00:43:05.836Z,23.9
2022-11-29T00:44:07.445Z,23.9
2022-11-29T00:45:09.375Z,23.9
2022-11-29T00:46:11.482Z,23.9
2022-11-29T00:47:13.255Z,23.9
2022-11-29T00:48:14.935Z,23.9
2022-11-29T00:49:16.548Z,23.9
2022-11-29T00:50:18.407Z,23.9
2022-11-29T00:51:20.095Z,23.9
2022-11-29T00:52:21.708Z,23.9
2022-11-29T00:53:23.377Z,23.9
2022-11-29T00:54:24.975Z,23.9
2022-11-29T00:55:26.572Z,23.9
2022-11-29T00:56:28.395Z,23.9
2022-11-29T00:57:30.129Z,23.9
2022-11-29T00:58:34.707Z,23.9
2022-11-29T00:59:36.670Z,23.9
2022-11-29T01:00:38.537Z,23.9
2022-11-29T01:01:40.705Z,23.9
2022-11-29T01:02:42.997Z,23.9
2022-11-29T01:03:45.118Z,23.9
2022-11-29T01:04:47.115Z,23.9
2022-11-29T01:05:49.272Z,23.9
2022-11-29T01:06:51.294Z,23.9
2022-11-29T01:07:53.038Z,23.9
2022-11-29T01:08:55.228Z,23.9
2022-11-29T01:09:56.828Z,23.9
2022-11-29T01:10:58.573Z,23.9
2022-11-29T01:12:00.296Z,23.9
2022-11-29T01:13:01.985Z,23.9
2022-11-29T01:14:03.688Z,23.9
2022-11-29T01:15:05.265Z,23.9
2022-11-29T01:16:06.935Z,23.9
2022-11-29T01:17:08.619Z,23.9
2022-11-29T01:18:10.498Z,23.9
2022-11-29T01:19:12.092Z,23.9
2022-11-29T01:20:13.708Z,23.9
2022-11-29T01:21:15.358Z,23.9
2022-11-29T01:22:16.992Z,23.9
2022-11-29T01:23:18.583Z,23.9
2022-11-29T01:24:20.313Z,23.9
2022-11-29T01:25:22.067Z,23.9
2022-11-29T01:26:23.708Z,23.9
2022-11-29T01:27:25.317Z,23.9
2022-11-29T01:28:27.133Z,23.9
2022-11-29T01:29:28.911Z,23.9
2022-11-29T01:30:30.585Z,23.9
2022-11-29T01:31:32.612Z,23.9
2022-11-29T01:32:34.388Z,23.9
2022-11-29T01:33:36.203Z,23.9
2022-11-29T01:34:38.000Z,23.9
2022-11-29T01:35:39.834Z,23.9
2022-11-29T01:36:41.554Z,23.9
2022-11-29T01:37:43.417Z,23.9
2022-11-29T01:38:45.033Z,23.9
2022-11-29T01:39:46.897Z,23.9
2022-11-29T01:40:48.491Z,23.9
2022-11-29T01:41:50.158Z,23.9
2022-11-29T01:42:51.778Z,23.9
2022-11-29T01:43:53.469Z,23.9
2022-11-29T01:44:55.395Z,23.9
2022-11-29T01:45:57.264Z,23.9
2022-11-29T01:46:59.367Z,23.9
2022-11-29T01:48:01.032Z,23.9
2022-11-29T01:49:02.926Z,23.9
2022-11-29T01:50:04.556Z,23.9
2022-11-29T01:51:06.161Z,23.9
2022-11-29T01:52:08.078Z,23.9
2022-11-29T01:53:09.923Z,23.9
2022-11-29T01:54:11.539Z,23.9
2022-11-29T01:55:13.345Z,23.9
2022-11-29T01:56:16.171Z,23.9
2022-11-29T01:57:18.456Z,23.9
2022-11-29T01:58:20.094Z,23.9
2022-11-29T01:59:21.689Z,23.9
2022-11-29T02:00:23.529Z,23.9
2022-11-29T02:01:25.180Z,23.9
2022-11-29T02:02:27.498Z,23.9
2022-11-29T02:03:29.292Z,23.9
2022-11-29T02:04:30.923Z,23.9
2022-11-29T02:05:32.531Z,23.9
2022-11-29T02:06:34.159Z,23.9
2022-11-29T02:07:35.840Z,23.9
2022-11-29T02:08:37.717Z,23.9
2022-11-29T02:09:39.362Z,23.9
2022-11-29T02:10:40.968Z,23.9
2022-11-29T02:11:42.810Z,23.9
2022-11-29T02:12:44.558Z,23.9
2022-11-29T02:13:46.206Z,23.9
2022-11-29T02:14:47.997Z,23.9
2022-11-29T02:15:49.872Z,23.9
2022-11-29T02:16:56.354Z,23.9
2022-11-29T02:17:58.544Z,23.9
2022-11-29T02:19:00.307Z,23.9
2022-11-29T02:20:02.198Z,23.9
2022-11-29T02:21:03.875Z,23.9
2022-11-29T02:22:05.463Z,23.9
2022-11-29T02:23:07.262Z,23.9
2022-11-29T02:24:09.015Z,23.9
2022-11-29T02:25:10.637Z,23.9
2022-11-29T02:26:12.281Z,23.9
2022-11-29T02:27:13.895Z,23.9
2022-11-29T02:28:15.711Z,23.9
2022-11-29T02:29:17.438Z,23.9
2022-11-29T02:30:19.224Z,23.9
2022-11-29T02:31:20.976Z,23.9
2022-11-29T02:32:22.892Z,23.9
2022-11-29T02:33:24.524Z,23.9
2022-11-29T02:34:26.289Z,23.9
2022-11-29T02:35:27.971Z,23.9
2022-11-29T02:36:29.599Z,23.9
2022-11-29T02:37:31.200Z,23.9
2022-11-29T02:38:32.811Z,23.9
2022-11-29T02:39:34.478Z,23.9
2022-11-29T02:40:36.182Z,23.9
2022-11-29T02:41:38.077Z,23.9
2022-11-29T02:42:39.877Z,23.9
2022-11-29T02:43:41.851Z,23.9
2022-11-29T02:44:43.719Z,23.9
2022-11-29T02:45:46.649Z,23.9
2022-11-29T02:46:48.869Z,23.9
2022-11-29T02:47:50.470Z,23.9
2022-11-29T02:48:52.095Z,23.9
2022-11-29T02:49:53.762Z,23.9
2022-11-29T02:50:55.647Z,23.9
2022-11-29T02:51:57.320Z,23.9
2022-11-29T02:52:59.173Z,23.9
2022-11-29T02:54:00.984Z,23.9
2022-11-29T02:55:02.601Z,23.9
2022-11-29T02:56:04.339Z,23.9
2022-11-29T02:57:06.171Z,23.9
2022-11-29T02:58:07.975Z,23.9
2022-11-29T02:59:09.549Z,23.9
2022-11-29T03:00:11.161Z,23.9
2022-11-29T03:01:12.823Z,23.9
2022-11-29T03:02:15.079Z,23.9
2022-11-29T03:03:17.153Z,23.9
2022-11-29T03:04:19.076Z,23.9
2022-11-29T03:05:20.690Z,23.9
2022-11-29T03:06:22.385Z,23.9
2022-11-29T03:07:24.188Z,23.9
2022-11-29T03:08:26.374Z,23.9
2022-11-29T03:09:28.023Z,23.9
2022-11-29T03:10:29.781Z,23.9
2022-11-29T03:11:31.646Z,23.9
2022-11-29T03:12:33.393Z,23.9
2022-11-29T03:13:35.206Z,23.9
2022-11-29T03:14:36.787Z,23.9
2022-11-29T03:15:38.433Z,23.9
2022-11-29T03:16:43.176Z,23.8
2022-11-29T03:17:45.422Z,23.9
2022-11-29T03:18:47.079Z,23.9
2022-11-29T03:19:48.699Z,23.9
2022-11-29T03:20:50.456Z,23.9
2022-11-29T03:21:52.089Z,23.9
2022-11-29T03:22:53.939Z,23.9
2022-11-29T03:23:55.540Z,23.9
2022-11-29T03:24:57.370Z,23.9
2022-11-29T03:25:59.306Z,23.9
2022-11-29T03:27:00.905Z,23.9
2022-11-29T03:28:03.617Z,23.9
2022-11-29T03:29:05.231Z,23.9
2022-11-29T03:30:07.079Z,23.9
2022-11-29T03:31:08.900Z,23.9
2022-11-29T03:32:10.793Z,23.9
2022-11-29T03:33:12.538Z,23.9
2022-11-29T03:34:14.222Z,23.9
2022-11-29T03:35:15.862Z,23.9
2022-11-29T03:36:17.594Z,23.9
2022-11-29T03:37:19.298Z,23.9
2022-11-29T03:38:21.076Z,23.9
2022-11-29T03:39:22.824Z,23.9
2022-11-29T03:40:24.423Z,23.9
2022-11-29T03:41:26.011Z,23.9
2022-11-29T03:42:27.586Z,23.9
2022-11-29T03:43:29.412Z,23.9
2022-11-29T03:44:31.216Z,23.9
2022-11-29T03:45:33.114Z,23.8
2022-11-29T03:46:34.937Z,23.9
2022-11-29T03:47:36.814Z,23.9
2022-11-29T03:48:38.655Z,23.8
2022-11-29T03:49:40.274Z,23.8
2022-11-29T03:50:41.958Z,23.9
2022-11-29T03:51:43.576Z,23.8
2022-11-29T03:52:45.347Z,23.9
2022-11-29T03:53:46.938Z,23.8
2022-11-29T03:54:48.678Z,23.8
2022-11-29T03:55:50.404Z,23.8
2022-11-29T03:56:52.100Z,23.9
2022-11-29T03:57:53.709Z,23.9
2022-11-29T03:58:55.371Z,23.9
2022-11-29T03:59:57.006Z,23.9
2022-11-29T04:00:58.601Z,23.9
2022-11-29T04:02:00.211Z,23.9
2022-11-29T04:03:01.828Z,23.9
2022-11-29T04:04:03.877Z,23.9
2022-11-29T04:05:05.609Z,23.9
2022-11-29T04:06:07.445Z,23.9
2022-11-29T04:07:09.073Z,23.9
2022-11-29T04:08:10.657Z,23.8
2022-11-29T04:09:12.287Z,23.8
2022-11-29T04:10:13.868Z,23.8
2022-11-29T04:11:16.058Z,23.7
2022-11-29T04:12:17.705Z,23.7
2022-11-29T04:13:19.524Z,23.6
2022-11-29T04:14:21.226Z,23.6
2022-11-29T04:15:22.828Z,23.6
2022-11-29T04:16:24.819Z,23.5
2022-11-29T04:17:26.671Z,23.5
2022-11-29T04:18:28.285Z,23.5
2022-11-29T04:19:29.990Z,23.5
2022-11-29T04:20:34.980Z,23.5
2022-11-29T04:21:49.937Z,23.6
2022-11-29T04:22:51.637Z,23.6
2022-11-29T04:23:53.355Z,23.6
2022-11-29T04:24:55.010Z,23.6
2022-11-29T04:25:56.605Z,23.6
2022-11-29T04:26:58.223Z,23.6
2022-11-29T04:27:59.893Z,23.6
2022-11-29T04:29:01.490Z,23.6
2022-11-29T04:30:03.091Z,23.6
2022-11-29T04:31:04.899Z,23.6
2022-11-29T04:32:06.806Z,23.6
2022-11-29T04:33:08.486Z,23.6
2022-11-29T04:34:10.095Z,23.6
2022-11-29T04:35:11.876Z,23.6
2022-11-29T04:36:13.567Z,23.7
2022-11-29T04:37:15.234Z,23.7
2022-11-29T04:38:16.834Z,23.7
2022-11-29T04:39:18.468Z,23.7
2022-11-29T04:40:20.145Z,23.8
2022-11-29T04:41:22.027Z,23.8
2022-11-29T04:42:23.840Z,23.8
2022-11-29T04:43:25.476Z,23.8
2022-11-29T04:44:27.119Z,23.8
2022-11-29T04:45:28.973Z,23.8
2022-11-29T04:46:30.700Z,23.8
2022-11-29T04:47:32.605Z,23.8
2022-11-29T04:48:34.353Z,23.8
2022-11-29T04:49:35.985Z,23.8
2022-11-29T04:50:37.882Z,23.8
2022-11-29T04:51:42.411Z,23.8
2022-11-29T04:52:44.043Z,23.8
2022-11-29T04:53:45.721Z,23.8
2022-11-29T04:54:47.696Z,23.8
2022-11-29T04:55:49.453Z,23.8
2022-11-29T04:56:51.313Z,23.8
2022-11-29T04:57:53.161Z,23.8
2022-11-29T04:58:54.790Z,23.8
2022-11-29T04:59:56.694Z,23.8
2022-11-29T05:00:58.404Z,23.8
2022-11-29T05:02:00.083Z,23.8
2022-11-29T05:03:02.015Z,23.8
2022-11-29T05:04:04.127Z,23.8
2022-11-29T05:05:05.786Z,23.8
2022-11-29T05:06:07.581Z,23.8
2022-11-29T05:07:09.376Z,23.8
2022-11-29T05:08:11.249Z,23.8
2022-11-29T05:09:13.187Z,23.8
2022-11-29T05:10:15.043Z,23.8
2022-11-29T05:11:18.848Z,23.8
2022-11-29T05:12:28.560Z,23.8
2022-11-29T05:13:30.152Z,23.8
2022-11-29T05:14:31.775Z,23.7
2022-11-29T05:15:33.415Z,23.6
2022-11-29T05:16:35.081Z,23.5
2022-11-29T05:17:37.620Z,23.5
2022-11-29T05:18:39.366Z,23.4
2022-11-29T05:19:41.099Z,23.4
2022-11-29T05:20:42.712Z,23.3
2022-11-29T05:21:44.382Z,23.2
2022-11-29T05:22:46.036Z,23.2
2022-11-29T05:23:47.614Z,23.1
2022-11-29T05:24:49.208Z,23.1
2022-11-29T05:25:50.829Z,23.1
2022-11-29T05:26:52.538Z,23
2022-11-29T05:27:54.150Z,23
2022-11-29T05:28:55.759Z,23
2022-11-29T05:29:57.378Z,23
2022-11-29T05:30:59.144Z,23
2022-11-29T05:32:01.014Z,22.9
2022-11-29T05:33:02.605Z,22.9
2022-11-29T05:34:04.348Z,22.9
2022-11-29T05:35:05.969Z,23
2022-11-29T05:36:07.558Z,23.1
2022-11-29T05:37:09.246Z,23.2
2022-11-29T05:38:10.913Z,23.2
2022-11-29T05:39:12.601Z,23.3
2022-11-29T05:40:14.227Z,23.4
2022-11-29T05:41:15.806Z,23.4
2022-11-29T05:42:17.445Z,23.4
2022-11-29T05:43:19.241Z,23.4
2022-11-29T05:44:20.875Z,23.5
2022-11-29T05:45:22.495Z,23.5
2022-11-29T05:46:24.271Z,23.5
2022-11-29T05:47:31.176Z,23.5
2022-11-29T05:48:33.274Z,23.5
2022-11-29T05:49:34.901Z,23.6
2022-11-29T05:50:36.523Z,23.6
2022-11-29T05:51:38.106Z,23.6
2022-11-29T05:52:39.869Z,23.6
2022-11-29T05:53:41.599Z,23.6
2022-11-29T05:54:43.518Z,23.7
2022-11-29T05:55:46.594Z,23.7
2022-11-29T05:56:48.194Z,23.7
2022-11-29T05:57:49.881Z,23.7
2022-11-29T05:58:51.473Z,23.8
2022-11-29T05:59:53.089Z,23.8
2022-11-29T06:00:54.706Z,23.8
2022-11-29T06:01:56.364Z,23.8
2022-11-29T06:02:58.579Z,23.8
2022-11-29T06:04:00.685Z,23.8
2022-11-29T06:05:02.308Z,23.8
2022-11-29T06:06:03.923Z,23.8
2022-11-29T06:07:05.548Z,23.8
2022-11-29T06:08:07.250Z,23.8
2022-11-29T06:09:08.862Z,23.9
2022-11-29T06:10:10.544Z,23.9
2022-11-29T06:11:12.182Z,23.9
2022-11-29T06:12:16.969Z,23.9
2022-11-29T06:13:23.009Z,23.9
2022-11-29T06:14:24.695Z,23.9
2022-11-29T06:15:26.312Z,23.9
2022-11-29T06:16:28.338Z,24
2022-11-29T06:17:34.411Z,23.9
2022-11-29T06:18:41.018Z,24
2022-11-29T06:19:42.647Z,24
2022-11-29T06:20:44.237Z,24
2022-11-29T06:21:45.856Z,24
2022-11-29T06:22:47.527Z,23.9
2022-11-29T06:23:49.246Z,24
2022-11-29T06:24:51.034Z,24
2022-11-29T06:25:53.032Z,24
2022-11-29T06:26:54.679Z,24
2022-11-29T06:27:56.281Z,24
2022-11-29T06:28:57.990Z,24
2022-11-29T06:29:59.737Z,24
2022-11-29T06:31:01.573Z,24
2022-11-29T06:32:03.834Z,24
2022-11-29T06:33:05.472Z,24
2022-11-29T06:34:07.164Z,24.1
2022-11-29T06:35:08.757Z,24.1
2022-11-29T06:36:10.353Z,24.1
2022-11-29T06:37:12.358Z,24.1
2022-11-29T06:38:13.966Z,24.1
2022-11-29T06:39:15.676Z,24.1
2022-11-29T06:40:17.284Z,24.1
2022-11-29T06:41:18.980Z,24.1
2022-11-29T06:42:20.658Z,24.1
2022-11-29T06:43:22.239Z,24.1
2022-11-29T06:44:23.928Z,24.2
2022-11-29T06:45:25.546Z,24.2
2022-11-29T06:46:27.283Z,24.1
2022-11-29T06:47:29.476Z,24.2
2022-11-29T06:48:31.293Z,24.2
2022-11-29T06:49:33.122Z,24.2
2022-11-29T06:50:34.798Z,24.2
2022-11-29T06:51:36.485Z,24.2
2022-11-29T06:52:38.129Z,24.2
2022-11-29T06:53:39.809Z,24.2
2022-11-29T06:54:41.673Z,24.2
2022-11-29T06:55:44.106Z,24.1
2022-11-29T06:56:45.966Z,24.1
2022-11-29T06:57:47.760Z,24.1
2022-11-29T06:58:49.531Z,24.2
2022-11-29T06:59:51.663Z,24.2
2022-11-29T07:00:53.407Z,24.3
2022-11-29T07:01:55.334Z,24.3
2022-11-29T07:02:57.384Z,24.3
2022-11-29T07:03:58.988Z,24.3
2022-11-29T07:05:00.626Z,24.3
2022-11-29T07:06:02.268Z,24.3
2022-11-29T07:07:03.930Z,24.3
2022-11-29T07:08:05.520Z,24.3
2022-11-29T07:09:07.135Z,24.3
2022-11-29T07:10:13.522Z,24.3
2022-11-29T07:11:16.776Z,24.3
2022-11-29T07:12:18.671Z,24.3
2022-11-29T07:13:20.280Z,24.3
2022-11-29T07:14:22.000Z,24.3
2022-11-29T07:15:23.617Z,24.3
2022-11-29T07:16:25.380Z,24.3
2022-11-29T07:17:27.168Z,24.3
2022-11-29T07:18:28.922Z,24.3
2022-11-29T07:19:30.589Z,24.3
2022-11-29T07:20:32.273Z,24.4
2022-11-29T07:21:33.958Z,24.4
2022-11-29T07:22:35.711Z,24.3
2022-11-29T07:23:37.659Z,24.3
2022-11-29T07:24:39.267Z,24.4
2022-11-29T07:25:40.953Z,24.4
2022-11-29T07:26:42.867Z,24.4
2022-11-29T07:27:44.602Z,24.4
2022-11-29T07:28:46.427Z,24.4
2022-11-29T07:29:48.213Z,24.3
2022-11-29T07:30:49.905Z,24.3
2022-11-29T07:31:51.635Z,24.4
2022-11-29T07:32:57.338Z,24.4
2022-11-29T07:34:02.397Z,24.4
2022-11-29T07:35:04.107Z,24.4
2022-11-29T07:36:06.005Z,24.4
2022-11-29T07:37:07.899Z,24.4
2022-11-29T07:38:09.807Z,24.4
2022-11-29T07:39:11.653Z,24.4
2022-11-29T07:40:13.504Z,24.4
2022-11-29T07:41:15.441Z,24.4
2022-11-29T07:42:17.208Z,24.5
2022-11-29T07:43:19.113Z,24.5
2022-11-29T07:44:21.013Z,24.5
2022-11-29T07:45:22.753Z,24.5
2022-11-29T07:46:24.555Z,24.5
2022-11-29T07:47:29.071Z,24.5
2022-11-29T07:48:37.723Z,24.5
2022-11-29T07:49:39.575Z,24.5
2022-11-29T07:50:41.323Z,24.6
2022-11-29T07:51:42.957Z,24.5
2022-11-29T07:52:44.882Z,24.5
2022-11-29T07:53:46.497Z,24.5
2022-11-29T07:54:48.273Z,24.5
2022-11-29T07:55:50.198Z,24.5
2022-11-29T07:56:52.261Z,24.5
2022-11-29T07:57:54.063Z,24.6
2022-11-29T07:58:55.992Z,24.6
2022-11-29T07:59:58.187Z,24.6
2022-11-29T08:00:59.912Z,24.5
2022-11-29T08:02:01.819Z,24.6
2022-11-29T08:03:05.914Z,24.6
2022-11-29T08:04:07.533Z,24.6
2022-11-29T08:05:09.233Z,24.6
2022-11-29T08:06:10.854Z,24.6
2022-11-29T08:07:12.530Z,24.6
2022-11-29T08:08:14.601Z,24.6
2022-11-29T08:09:16.228Z,24.6
2022-11-29T08:10:17.817Z,24.7
2022-11-29T08:11:19.426Z,24.7
2022-11-29T08:12:21.262Z,24.6
2022-11-29T08:13:23.074Z,24.6
2022-11-29T08:14:25.040Z,24.6
2022-11-29T08:15:26.727Z,24.6
2022-11-29T08:16:28.549Z,24.6
2022-11-29T08:17:30.556Z,24.6
2022-11-29T08:18:32.163Z,24.6
2022-11-29T08:19:33.920Z,24.6
2022-11-29T08:20:35.747Z,24.6
2022-11-29T08:21:37.650Z,24.6
2022-11-29T08:22:39.305Z,24.6
2022-11-29T08:23:41.078Z,24.6
2022-11-29T08:24:43.173Z,24.6
2022-11-29T08:25:46.384Z,24.6
2022-11-29T08:26:48.066Z,24.6
2022-11-29T08:27:50.056Z,24.6
2022-11-29T08:28:51.763Z,24.6
2022-11-29T08:29:53.455Z,24.6
2022-11-29T08:30:55.105Z,24.6
2022-11-29T08:31:56.838Z,24.6
2022-11-29T08:32:58.685Z,24.6
2022-11-29T08:34:00.328Z,24.6
2022-11-29T08:35:01.994Z,24.6
2022-11-29T08:36:03.816Z,24.6
2022-11-29T08:37:05.773Z,24.6
2022-11-29T08:38:07.647Z,24.6
2022-11-29T08:39:09.819Z,24.6
2022-11-29T08:40:11.776Z,24.6
2022-11-29T08:41:13.610Z,24.6
2022-11-29T08:42:15.461Z,24.6
2022-11-29T08:43:17.381Z,24.6
2022-11-29T08:44:19.164Z,24.6
2022-11-29T08:45:21.040Z,24.6
2022-11-29T08:46:23.101Z,24.6
2022-11-29T08:47:24.977Z,24.6
2022-11-29T08:48:26.613Z,24.6
2022-11-29T08:49:28.325Z,24.6
2022-11-29T08:50:29.942Z,24.6
2022-11-29T08:51:31.593Z,24.7
2022-11-29T08:52:33.445Z,24.6
2022-11-29T08:53:35.279Z,24.6
2022-11-29T08:54:37.147Z,24.6
2022-11-29T08:55:38.786Z,24.7
2022-11-29T08:58:42.817Z,24.7
2022-11-29T08:59:44.438Z,24.8
2022-11-29T09:00:46.260Z,24.8
2022-11-29T09:01:48.715Z,24.7
2022-11-29T09:02:50.927Z,24.7
2022-11-29T09:03:52.675Z,24.7
2022-11-29T09:04:54.328Z,24.7
2022-11-29T09:05:56.067Z,24.7
2022-11-29T09:06:57.889Z,24.7
2022-11-29T09:07:59.817Z,24.7
2022-11-29T09:09:02.131Z,24.7
2022-11-29T09:10:03.921Z,24.7
2022-11-29T09:11:05.638Z,24.7
2022-11-29T09:12:07.317Z,24.7
2022-11-29T09:13:09.081Z,24.7
2022-11-29T09:14:11.001Z,24.7
2022-11-29T09:15:12.789Z,24.7
2022-11-29T09:16:14.514Z,24.7
2022-11-29T09:17:16.733Z,24.7
2022-11-29T09:18:18.427Z,24.7
2022-11-29T09:19:20.017Z,24.7
2022-11-29T09:20:21.694Z,24.8
2022-11-29T09:21:23.783Z,24.8
2022-11-29T09:22:25.374Z,24.8
2022-11-29T09:23:26.956Z,24.8
2022-11-29T09:24:28.547Z,24.8
2022-11-29T09:25:30.146Z,24.8
2022-11-29T09:26:31.853Z,24.8
2022-11-29T09:27:33.490Z,24.8
2022-11-29T09:28:35.363Z,24.8
2022-11-29T09:29:37.136Z,24.8
2022-11-29T09:30:38.778Z,24.8
2022-11-29T09:31:40.471Z,24.8
2022-11-29T09:32:42.623Z,24.8
2022-11-29T09:33:44.396Z,24.8
2022-11-29T09:34:46.398Z,24.8
2022-11-29T09:35:49.407Z,24.8
2022-11-29T09:36:51.370Z,24.8
2022-11-29T09:37:53.105Z,24.8
2022-11-29T09:38:55.102Z,24.8
2022-11-29T09:39:56.796Z,24.8
2022-11-29T09:40:58.621Z,24.8
2022-11-29T09:42:00.258Z,24.8
2022-11-29T09:43:01.859Z,24.8
2022-11-29T09:44:03.664Z,24.8
2022-11-29T09:45:05.403Z,24.8
2022-11-29T09:46:07.060Z,24.8
2022-11-29T09:47:08.905Z,24.8
2022-11-29T09:48:10.515Z,24.9
2022-11-29T09:49:12.203Z,24.9
2022-11-29T09:50:13.796Z,24.9
2022-11-29T09:51:15.414Z,24.9
2022-11-29T09:52:17.047Z,24.9
2022-11-29T09:53:18.679Z,24.9
2022-11-29T09:54:20.408Z,24.9
2022-11-29T09:55:22.105Z,24.9
2022-11-29T09:56:23.722Z,24.9
2022-11-29T09:57:25.347Z,24.9
2022-11-29T09:58:27.139Z,24.9
2022-11-29T09:59:28.790Z,24.9
2022-11-29T10:00:30.773Z,25
2022-11-29T10:01:32.447Z,25
2022-11-29T10:02:34.442Z,25.1
2022-11-29T10:03:36.179Z,25.1
2022-11-29T10:04:37.859Z,25.1
2022-11-29T10:05:39.483Z,25.2
2022-11-29T10:06:41.125Z,25.2
2022-11-29T10:07:42.735Z,25.2
2022-11-29T10:08:44.812Z,25.1
2022-11-29T10:09:46.797Z,25.1
2022-11-29T10:10:48.453Z,25.1
2022-11-29T10:11:50.337Z,25.1
2022-11-29T10:12:51.939Z,25
2022-11-29T10:13:53.555Z,25
2022-11-29T10:14:55.209Z,25
2022-11-29T10:15:56.861Z,25
2022-11-29T10:16:58.587Z,25
2022-11-29T10:18:00.475Z,25
2022-11-29T10:19:02.084Z,25
2022-11-29T10:20:03.706Z,25
2022-11-29T10:21:05.301Z,25
2022-11-29T10:22:07.023Z,25
2022-11-29T10:23:08.726Z,25
2022-11-29T10:24:10.414Z,25
2022-11-29T10:25:12.016Z,25
2022-11-29T10:26:13.835Z,25
2022-11-29T10:27:15.730Z,25
2022-11-29T10:28:17.356Z,25
2022-11-29T10:29:19.044Z,25
2022-11-29T10:30:20.613Z,25
2022-11-29T10:31:22.533Z,25
2022-11-29T10:32:24.285Z,25
2022-11-29T10:33:25.954Z,25
2022-11-29T10:34:27.563Z,25
2022-11-29T10:35:29.326Z,25
2022-11-29T10:36:31.245Z,25
2022-11-29T10:37:32.953Z,25
2022-11-29T10:38:34.592Z,25
2022-11-29T10:39:36.190Z,25
2022-11-29T10:40:37.877Z,25
2022-11-29T10:41:42.241Z,25
2022-11-29T10:42:43.916Z,25
2022-11-29T10:43:45.739Z,25.1
2022-11-29T10:44:47.710Z,25.1
2022-11-29T10:45:50.248Z,25.1
2022-11-29T10:46:52.701Z,25.1
2022-11-29T10:47:54.307Z,25.1
2022-11-29T10:48:55.970Z,25.1
2022-11-29T10:49:57.590Z,25.1
2022-11-29T10:50:59.270Z,25.1
2022-11-29T10:52:01.043Z,25.1
2022-11-29T10:53:02.639Z,25.1
2022-11-29T10:54:04.264Z,25.1
2022-11-29T10:55:05.955Z,25.1
2022-11-29T10:56:07.708Z,25.1
2022-11-29T10:57:09.346Z,25.1
2022-11-29T10:58:10.994Z,25.1
2022-11-29T10:59:13.055Z,25.1
2022-11-29T11:00:14.799Z,25.1
2022-11-29T11:01:16.826Z,25.1
2022-11-29T11:02:18.999Z,25.1
2022-11-29T11:03:20.807Z,25.1
2022-11-29T11:04:22.616Z,25.1
2022-11-29T11:05:24.538Z,25.1
2022-11-29T11:06:26.367Z,25.1
2022-11-29T11:07:28.118Z,25.1
2022-11-29T11:08:30.175Z,25.1
2022-11-29T11:09:31.977Z,25.1
2022-11-29T11:10:33.897Z,25.1
2022-11-29T11:11:35.622Z,25.1
2022-11-29T11:12:37.522Z,25.1
2022-11-29T11:13:39.432Z,25.1
2022-11-29T11:14:41.092Z,25
2022-11-29T11:15:42.686Z,25
2022-11-29T11:16:44.560Z,25
2022-11-29T11:17:46.741Z,25
2022-11-29T11:18:48.575Z,25
2022-11-29T11:19:50.427Z,25
2022-11-29T11:20:52.170Z,25
2022-11-29T11:21:53.894Z,25
2022-11-29T11:22:55.521Z,25
2022-11-29T11:23:57.361Z,25
2022-11-29T11:24:59.163Z,25
2022-11-29T11:26:00.909Z,25
2022-11-29T11:27:02.658Z,25
2022-11-29T11:28:04.510Z,25
2022-11-29T11:29:06.422Z,25
2022-11-29T11:30:08.204Z,25
2022-11-29T11:31:10.196Z,25
2022-11-29T11:32:12.203Z,25.1
2022-11-29T11:33:14.085Z,25.1
2022-11-29T11:34:15.977Z,25.1
2022-11-29T11:35:18.579Z,25.1
2022-11-29T11:36:20.521Z,25.1
2022-11-29T11:37:22.382Z,25.1
2022-11-29T11:38:24.135Z,25.1
2022-11-29T11:39:26.039Z,25
2022-11-29T11:40:28.008Z,25
2022-11-29T11:41:30.757Z,25
2022-11-29T11:42:32.582Z,25
2022-11-29T11:43:34.436Z,25.1
2022-11-29T11:44:51.716Z,25.1
2022-11-29T11:45:53.831Z,25.1
2022-11-29T11:46:55.986Z,25.1
2022-11-29T11:47:57.710Z,25.1
2022-11-29T11:48:59.558Z,25.1
2022-11-29T11:50:01.147Z,25.1
2022-11-29T11:51:03.187Z,25
2022-11-29T11:52:05.053Z,25
2022-11-29T11:53:06.824Z,25.1
2022-11-29T11:54:08.663Z,25.1
2022-11-29T11:55:10.523Z,25.1
2022-11-29T11:56:12.438Z,25.1
2022-11-29T11:57:14.070Z,25.1
2022-11-29T11:58:15.806Z,25.1
2022-11-29T11:59:17.898Z,25.1
2022-11-29T12:00:34.626Z,25.2
2022-11-29T12:02:08.052Z,25.2
2022-11-29T12:03:10.081Z,25.2
2022-11-29T12:04:12.637Z,25.2
2022-11-29T12:05:14.381Z,25.2
2022-11-29T12:06:16.064Z,25.1
2022-11-29T12:07:17.862Z,25.1
2022-11-29T12:08:19.973Z,25.1
2022-11-29T12:09:21.974Z,25.1
2022-11-29T12:10:23.721Z,25.1
2022-11-29T12:11:25.480Z,25.1
2022-11-29T12:12:27.270Z,25.1
2022-11-29T12:13:29.153Z,25.1
2022-11-29T12:14:30.929Z,25
2022-11-29T12:15:32.870Z,25
2022-11-29T12:16:35.034Z,24.9
2022-11-29T12:17:36.782Z,24.8
2022-11-29T12:18:38.549Z,24.7
2022-11-29T12:19:40.403Z,24.7
2022-11-29T12:20:42.224Z,24.7
2022-11-29T12:21:43.967Z,24.7
2022-11-29T12:22:48.407Z,24.7
2022-11-29T12:23:50.545Z,24.7
2022-11-29T12:24:52.333Z,24.7
2022-11-29T12:25:54.290Z,24.7
2022-11-29T12:26:58.191Z,24.7
2022-11-29T12:28:01.808Z,24.8
2022-11-29T12:29:03.624Z,24.8
2022-11-29T12:30:05.379Z,24.8
2022-11-29T12:31:07.209Z,24.8
2022-11-29T12:32:09.234Z,24.8
2022-11-29T12:33:10.941Z,24.8
2022-11-29T12:34:12.749Z,24.8
2022-11-29T12:35:18.584Z,24.8
2022-11-29T12:39:03.304Z,24.8
2022-11-29T12:40:05.269Z,24.8
2022-11-29T12:41:06.983Z,24.9
2022-11-29T12:42:08.785Z,24.9
2022-11-29T12:43:10.341Z,24.9
2022-11-29T12:44:12.186Z,24.9
2022-11-29T12:45:13.944Z,24.9
2022-11-29T12:46:15.723Z,24.9
2022-11-29T12:48:54.013Z,24.9
2022-11-29T12:49:55.713Z,25
2022-11-29T12:50:57.627Z,24.9
2022-11-29T12:51:59.539Z,25
2022-11-29T12:53:01.406Z,24.9
2022-11-29T12:54:03.253Z,24.9
2022-11-29T12:55:04.984Z,24.9
2022-11-29T12:56:06.830Z,25
2022-11-29T12:57:08.613Z,24.9
2022-11-29T12:58:10.261Z,24.9
2022-11-29T12:59:12.014Z,24.9
2022-11-29T13:00:13.937Z,24.9
2022-11-29T13:01:15.869Z,24.9
2022-11-29T13:02:18.074Z,24.9
2022-11-29T13:03:19.799Z,24.9
2022-11-29T13:04:21.518Z,25
2022-11-29T13:05:23.234Z,25
2022-11-29T13:06:25.158Z,25
2022-11-29T13:07:26.933Z,25
2022-11-29T13:08:31.609Z,24.9
2022-11-29T13:09:33.436Z,24.9
2022-11-29T13:10:35.101Z,24.9
2022-11-29T13:11:36.865Z,24.9
2022-11-29T13:12:38.689Z,24.9
2022-11-29T13:13:40.587Z,24.9
2022-11-29T13:14:43.790Z,24.9
2022-11-29T13:15:46.216Z,24.9
2022-11-29T13:16:48.129Z,24.9
2022-11-29T13:17:50.305Z,24.9
2022-11-29T13:18:51.955Z,24.9
2022-11-29T13:19:53.796Z,24.9
2022-11-29T13:20:55.635Z,24.9
2022-11-29T13:21:57.407Z,24.9
2022-11-29T13:22:59.238Z,24.9
2022-11-29T13:24:08.161Z,24.9
2022-11-29T13:25:11.957Z,25
2022-11-29T13:26:13.726Z,25
2022-11-29T13:27:15.554Z,24.9
2022-11-29T13:28:17.265Z,24.9
2022-11-29T13:29:19.043Z,24.9
2022-11-29T13:30:20.693Z,25
2022-11-29T13:31:22.622Z,24.9
2022-11-29T13:32:24.695Z,24.9
2022-11-29T13:33:26.444Z,24.9
2022-11-29T13:34:28.306Z,24.9
2022-11-29T13:35:30.150Z,24.9
2022-11-29T13:36:31.856Z,24.9
2022-11-29T13:37:33.811Z,24.9
2022-11-29T13:38:35.698Z,24.9
2022-11-29T13:39:37.454Z,24.9
2022-11-29T13:40:39.121Z,24.9
2022-11-29T13:41:40.937Z,24.9
2022-11-29T13:42:42.741Z,24.9
2022-11-29T13:43:44.453Z,24.9
2022-11-29T13:44:46.312Z,24.9
2022-11-29T13:45:49.464Z,24.9
2022-11-29T13:46:51.260Z,24.9
2022-11-29T13:47:53.400Z,24.9
2022-11-29T13:48:55.231Z,24.9
2022-11-29T13:49:56.862Z,24.9
2022-11-29T13:50:58.469Z,24.9
2022-11-29T13:52:00.140Z,24.9
2022-11-29T13:53:02.034Z,24.9
2022-11-29T13:54:03.758Z,24.9
2022-11-29T13:55:05.562Z,24.9
2022-11-29T13:56:07.273Z,24.9
2022-11-29T13:57:08.992Z,24.9
2022-11-29T13:58:18.702Z,24.9